sensor_id;sensor_type;location;lat;lon;timestamp;pressure;altitude;pressure_sealevel;temperature;humidity
35918;BME280;22011;59.912;30.300;2023-02-16T00:01:24;102315.91;;;3.65;66.27
35918;BME280;22011;59.912;30.300;2023-02-16T00:03:53;102310.59;;;3.49;65.63
35918;BME280;22011;59.912;30.300;2023-02-16T00:06:22;102310.69;;;3.48;65.86
35918;BME280;22011;59.912;30.300;2023-02-16T00:08:51;102307.19;;;3.47;66.41
35918;BME280;22011;59.912;30.300;2023-02-16T00:11:23;102306.28;;;3.48;66.99
35918;BME280;22011;59.912;30.300;2023-02-16T00:14:10;102305.75;;;3.42;66.26
35918;BME280;22011;59.912;30.300;2023-02-16T00:16:38;102303.03;;;3.43;66.31
35918;BME280;22011;59.912;30.300;2023-02-16T00:19:18;102304.31;;;3.52;67.21
35918;BME280;22011;59.912;30.300;2023-02-16T00:21:48;102304.81;;;3.43;66.67
35918;BME280;22011;59.912;30.300;2023-02-16T00:24:16;102301.56;;;3.38;66.84
35918;BME280;22011;59.912;30.300;2023-02-16T00:26:44;102300.03;;;3.34;67.12
35918;BME280;22011;59.912;30.300;2023-02-16T00:29:18;102297.91;;;3.40;67.38
35918;BME280;22011;59.912;30.300;2023-02-16T00:31:46;102300.97;;;3.33;66.47
35918;BME280;22011;59.912;30.300;2023-02-16T00:34:28;102293.19;;;3.47;67.01
35918;BME280;22011;59.912;30.300;2023-02-16T00:36:58;102289.50;;;3.34;67.15
35918;BME280;22011;59.912;30.300;2023-02-16T00:39:26;102288.66;;;3.33;66.88
35918;BME280;22011;59.912;30.300;2023-02-16T00:41:56;102286.78;;;3.35;66.86
35918;BME280;22011;59.912;30.300;2023-02-16T00:44:30;102285.34;;;3.45;66.33
35918;BME280;22011;59.912;30.300;2023-02-16T00:47:02;102283.91;;;3.40;66.44
35918;BME280;22011;59.912;30.300;2023-02-16T00:49:30;102285.06;;;3.34;66.15
35918;BME280;22011;59.912;30.300;2023-02-16T00:51:59;102284.06;;;3.37;66.04
35918;BME280;22011;59.912;30.300;2023-02-16T00:54:27;102289.50;;;3.34;65.97
35918;BME280;22011;59.912;30.300;2023-02-16T00:56:55;102290.19;;;3.37;65.57
35918;BME280;22011;59.912;30.300;2023-02-16T00:59:23;102287.53;;;3.37;65.97
35918;BME280;22011;59.912;30.300;2023-02-16T01:01:51;102288.31;;;3.39;65.70
35918;BME280;22011;59.912;30.300;2023-02-16T01:04:22;102290.09;;;3.39;65.84
35918;BME280;22011;59.912;30.300;2023-02-16T01:06:50;102291.03;;;3.38;65.41
35918;BME280;22011;59.912;30.300;2023-02-16T01:09:36;102287.13;;;3.45;65.04
35918;BME280;22011;59.912;30.300;2023-02-16T01:12:21;102273.88;;;3.46;64.89
35918;BME280;22011;59.912;30.300;2023-02-16T01:14:51;102285.44;;;3.44;64.75
35918;BME280;22011;59.912;30.300;2023-02-16T01:17:23;102282.13;;;3.40;65.21
35918;BME280;22011;59.912;30.300;2023-02-16T01:19:53;102284.59;;;3.43;64.75
35918;BME280;22011;59.912;30.300;2023-02-16T01:22:20;102280.34;;;3.41;65.05
35918;BME280;22011;59.912;30.300;2023-02-16T01:24:49;102283.13;;;3.38;66.23
35918;BME280;22011;59.912;30.300;2023-02-16T01:27:17;102278.97;;;3.34;64.78
35918;BME280;22011;59.912;30.300;2023-02-16T01:29:45;102278.25;;;3.30;65.41
35918;BME280;22011;59.912;30.300;2023-02-16T01:32:14;102274.00;;;3.27;65.71
35918;BME280;22011;59.912;30.300;2023-02-16T01:34:41;102279.38;;;3.26;65.47
35918;BME280;22011;59.912;30.300;2023-02-16T01:37:13;102275.16;;;3.39;65.48
35918;BME280;22011;59.912;30.300;2023-02-16T01:39:43;102273.69;;;3.34;66.04
35918;BME280;22011;59.912;30.300;2023-02-16T01:42:19;102257.56;;;3.40;66.45
35918;BME280;22011;59.912;30.300;2023-02-16T01:44:52;102264.00;;;3.34;65.14
35918;BME280;22011;59.912;30.300;2023-02-16T01:47:33;102266.16;;;3.43;66.19
35918;BME280;22011;59.912;30.300;2023-02-16T01:50:14;102264.19;;;3.47;66.18
35918;BME280;22011;59.912;30.300;2023-02-16T01:52:43;102256.34;;;3.29;66.23
35918;BME280;22011;59.912;30.300;2023-02-16T01:55:17;102251.44;;;3.39;65.96
35918;BME280;22011;59.912;30.300;2023-02-16T01:57:49;102251.44;;;3.39;65.59
35918;BME280;22011;59.912;30.300;2023-02-16T02:00:26;102249.41;;;3.44;65.26
35918;BME280;22011;59.912;30.300;2023-02-16T02:02:55;102255.16;;;3.35;66.21
35918;BME280;22011;59.912;30.300;2023-02-16T02:05:44;102241.22;;;3.33;65.76
35918;BME280;22011;59.912;30.300;2023-02-16T02:08:17;102240.97;;;3.38;65.48
35918;BME280;22011;59.912;30.300;2023-02-16T02:10:57;102233.75;;;3.41;66.16
35918;BME280;22011;59.912;30.300;2023-02-16T02:13:32;102245.47;;;3.36;66.45
35918;BME280;22011;59.912;30.300;2023-02-16T02:16:04;102233.41;;;3.32;65.87
35918;BME280;22011;59.912;30.300;2023-02-16T02:18:33;102232.56;;;3.31;65.18
35918;BME280;22011;59.912;30.300;2023-02-16T02:21:14;102238.34;;;3.38;66.40
35918;BME280;22011;59.912;30.300;2023-02-16T02:27:16;102237.16;;;3.43;66.95
35918;BME280;22011;59.912;30.300;2023-02-16T02:30:03;102233.91;;;3.38;66.77
35918;BME280;22011;59.912;30.300;2023-02-16T02:32:45;102243.00;;;3.33;66.84
35918;BME280;22011;59.912;30.300;2023-02-16T02:35:31;102240.22;;;3.36;66.92
35918;BME280;22011;59.912;30.300;2023-02-16T02:38:10;102239.53;;;3.32;67.01
35918;BME280;22011;59.912;30.300;2023-02-16T02:40:52;102234.16;;;3.34;66.57
35918;BME280;22011;59.912;30.300;2023-02-16T02:43:27;102236.13;;;3.30;66.39
35918;BME280;22011;59.912;30.300;2023-02-16T02:46:01;102231.63;;;3.32;66.37
35918;BME280;22011;59.912;30.300;2023-02-16T02:48:31;102230.84;;;3.30;65.35
35918;BME280;22011;59.912;30.300;2023-02-16T02:51:01;102231.69;;;3.31;66.30
35918;BME280;22011;59.912;30.300;2023-02-16T02:53:50;102243.25;;;3.28;65.97
35918;BME280;22011;59.912;30.300;2023-02-16T02:56:45;102241.38;;;3.30;66.70
35918;BME280;22011;59.912;30.300;2023-02-16T02:59:34;102245.13;;;3.26;66.51
35918;BME280;22011;59.912;30.300;2023-02-16T03:02:23;102236.28;;;3.27;66.60
35918;BME280;22011;59.912;30.300;2023-02-16T03:04:52;102231.34;;;3.21;66.67
35918;BME280;22011;59.912;30.300;2023-02-16T03:07:24;102219.28;;;3.17;66.92
35918;BME280;22011;59.912;30.300;2023-02-16T03:10:12;102224.22;;;3.23;65.94
35918;BME280;22011;59.912;30.300;2023-02-16T03:12:59;102219.53;;;3.28;66.47
35918;BME280;22011;59.912;30.300;2023-02-16T03:15:29;102217.00;;;3.26;66.29
35918;BME280;22011;59.912;30.300;2023-02-16T03:17:59;102215.69;;;3.18;66.93
35918;BME280;22011;59.912;30.300;2023-02-16T03:20:45;102203.47;;;3.17;66.88
35918;BME280;22011;59.912;30.300;2023-02-16T03:23:32;102205.25;;;3.16;66.71
35918;BME280;22011;59.912;30.300;2023-02-16T03:26:18;102198.38;;;3.14;66.95
35918;BME280;22011;59.912;30.300;2023-02-16T03:29:05;102198.19;;;3.17;66.46
35918;BME280;22011;59.912;30.300;2023-02-16T03:31:46;102192.16;;;3.15;66.22
35918;BME280;22011;59.912;30.300;2023-02-16T03:34:14;102195.00;;;3.12;66.94
35918;BME280;22011;59.912;30.300;2023-02-16T03:36:46;102193.28;;;3.11;67.27
35918;BME280;22011;59.912;30.300;2023-02-16T03:39:13;102191.91;;;3.04;67.17
35918;BME280;22011;59.912;30.300;2023-02-16T03:41:44;102188.34;;;3.05;67.43
35918;BME280;22011;59.912;30.300;2023-02-16T03:44:12;102179.53;;;3.06;67.22
35918;BME280;22011;59.912;30.300;2023-02-16T03:46:40;102179.19;;;3.12;66.93
35918;BME280;22011;59.912;30.300;2023-02-16T03:49:09;102176.97;;;3.20;66.29
35918;BME280;22011;59.912;30.300;2023-02-16T03:51:37;102172.72;;;3.17;65.92
35918;BME280;22011;59.912;30.300;2023-02-16T03:54:05;102170.31;;;3.13;66.53
35918;BME280;22011;59.912;30.300;2023-02-16T03:56:32;102168.66;;;3.12;66.37
35918;BME280;22011;59.912;30.300;2023-02-16T03:59:00;102164.50;;;3.08;67.18
35918;BME280;22011;59.912;30.300;2023-02-16T04:01:27;102167.13;;;3.08;67.37
35918;BME280;22011;59.912;30.300;2023-02-16T04:03:55;102165.06;;;3.13;66.98
35918;BME280;22011;59.912;30.300;2023-02-16T04:06:24;102156.81;;;3.19;66.72
35918;BME280;22011;59.912;30.300;2023-02-16T04:08:51;102159.47;;;3.19;66.44
35918;BME280;22011;59.912;30.300;2023-02-16T04:11:19;102154.88;;;3.22;66.43
35918;BME280;22011;59.912;30.300;2023-02-16T04:14:04;102166.44;;;3.20;67.28
35918;BME280;22011;59.912;30.300;2023-02-16T04:16:32;102163.03;;;3.18;66.68
35918;BME280;22011;59.912;30.300;2023-02-16T04:18:59;102171.69;;;3.20;67.29
35918;BME280;22011;59.912;30.300;2023-02-16T04:21:28;102169.06;;;3.20;67.58
35918;BME280;22011;59.912;30.300;2023-02-16T04:23:56;102167.53;;;3.16;67.00
35918;BME280;22011;59.912;30.300;2023-02-16T04:26:23;102165.66;;;3.18;66.72
35918;BME280;22011;59.912;30.300;2023-02-16T04:28:51;102159.63;;;3.16;66.90
35918;BME280;22011;59.912;30.300;2023-02-16T04:31:18;102151.88;;;3.13;66.63
35918;BME280;22011;59.912;30.300;2023-02-16T04:33:46;102155.97;;;3.18;67.10
35918;BME280;22011;59.912;30.300;2023-02-16T04:36:13;102153.94;;;3.23;66.88
35918;BME280;22011;59.912;30.300;2023-02-16T04:38:42;102155.81;;;3.21;67.62
35918;BME280;22011;59.912;30.300;2023-02-16T04:41:10;102149.25;;;3.13;67.31
35918;BME280;22011;59.912;30.300;2023-02-16T04:43:37;102151.16;;;3.11;67.63
35918;BME280;22011;59.912;30.300;2023-02-16T04:46:04;102151.41;;;3.06;68.05
35918;BME280;22011;59.912;30.300;2023-02-16T04:48:32;102158.47;;;3.06;68.54
35918;BME280;22011;59.912;30.300;2023-02-16T04:51:02;102155.06;;;3.04;68.90
35918;BME280;22011;59.912;30.300;2023-02-16T04:53:29;102156.22;;;2.98;68.83
35918;BME280;22011;59.912;30.300;2023-02-16T04:55:58;102153.53;;;3.00;69.25
35918;BME280;22011;59.912;30.300;2023-02-16T04:58:26;102154.44;;;2.99;69.01
35918;BME280;22011;59.912;30.300;2023-02-16T05:00:53;102149.19;;;2.99;69.34
35918;BME280;22011;59.912;30.300;2023-02-16T05:03:21;102146.56;;;2.99;69.74
35918;BME280;22011;59.912;30.300;2023-02-16T05:05:48;102144.53;;;3.04;68.86
35918;BME280;22011;59.912;30.300;2023-02-16T05:08:16;102139.09;;;3.07;68.94
35918;BME280;22011;59.912;30.300;2023-02-16T05:10:43;102141.88;;;3.04;69.35
35918;BME280;22011;59.912;30.300;2023-02-16T05:13:32;102145.38;;;3.04;69.48
35918;BME280;22011;59.912;30.300;2023-02-16T05:16:19;102143.44;;;3.08;69.21
35918;BME280;22011;59.912;30.300;2023-02-16T05:18:47;102132.97;;;3.06;68.47
35918;BME280;22011;59.912;30.300;2023-02-16T05:21:14;102141.72;;;3.07;68.47
35918;BME280;22011;59.912;30.300;2023-02-16T05:23:57;102133.81;;;3.07;68.65
35918;BME280;22011;59.912;30.300;2023-02-16T05:26:25;102130.34;;;3.06;69.60
35918;BME280;22011;59.912;30.300;2023-02-16T05:28:55;102138.41;;;3.03;70.28
35918;BME280;22011;59.912;30.300;2023-02-16T05:31:23;102136.94;;;2.98;70.24
35918;BME280;22011;59.912;30.300;2023-02-16T05:33:51;102138.06;;;2.93;69.84
35918;BME280;22011;59.912;30.300;2023-02-16T05:36:18;102138.56;;;3.00;69.44
35918;BME280;22011;59.912;30.300;2023-02-16T05:38:46;102135.25;;;2.97;69.75
35918;BME280;22011;59.912;30.300;2023-02-16T05:41:14;102130.91;;;2.95;69.70
35918;BME280;22011;59.912;30.300;2023-02-16T05:43:49;102137.72;;;3.00;69.86
35918;BME280;22011;59.912;30.300;2023-02-16T05:46:18;102138.31;;;3.05;70.12
35918;BME280;22011;59.912;30.300;2023-02-16T05:48:46;102132.47;;;3.00;69.51
35918;BME280;22011;59.912;30.300;2023-02-16T05:51:13;102122.78;;;3.00;70.07
35918;BME280;22011;59.912;30.300;2023-02-16T05:53:41;102122.69;;;3.02;69.97
35918;BME280;22011;59.912;30.300;2023-02-16T05:56:08;102123.63;;;3.01;69.79
35918;BME280;22011;59.912;30.300;2023-02-16T05:58:36;102118.34;;;3.01;69.19
35918;BME280;22011;59.912;30.300;2023-02-16T06:01:04;102121.75;;;3.03;69.09
35918;BME280;22011;59.912;30.300;2023-02-16T06:03:34;102113.00;;;3.02;69.32
35918;BME280;22011;59.912;30.300;2023-02-16T06:06:03;102117.50;;;3.00;69.45
35918;BME280;22011;59.912;30.300;2023-02-16T06:08:31;102112.25;;;3.00;69.34
35918;BME280;22011;59.912;30.300;2023-02-16T06:10:59;102106.22;;;2.98;69.15
35918;BME280;22011;59.912;30.300;2023-02-16T06:13:26;102108.75;;;3.00;69.18
35918;BME280;22011;59.912;30.300;2023-02-16T06:15:55;102105.19;;;3.01;68.89
35918;BME280;22011;59.912;30.300;2023-02-16T06:18:23;102100.09;;;2.98;69.75
35918;BME280;22011;59.912;30.300;2023-02-16T06:20:55;102101.72;;;3.00;69.60
35918;BME280;22011;59.912;30.300;2023-02-16T06:23:23;102098.66;;;2.92;69.38
35918;BME280;22011;59.912;30.300;2023-02-16T06:25:50;102096.94;;;2.91;68.81
35918;BME280;22011;59.912;30.300;2023-02-16T06:28:18;102096.09;;;2.90;69.17
35918;BME280;22011;59.912;30.300;2023-02-16T06:30:45;102097.53;;;2.96;68.56
35918;BME280;22011;59.912;30.300;2023-02-16T06:33:13;102090.66;;;2.93;68.53
35918;BME280;22011;59.912;30.300;2023-02-16T06:35:40;102090.91;;;2.89;68.76
35918;BME280;22011;59.912;30.300;2023-02-16T06:38:09;102090.59;;;2.95;68.67
35918;BME280;22011;59.912;30.300;2023-02-16T06:40:37;102092.19;;;2.98;68.31
35918;BME280;22011;59.912;30.300;2023-02-16T06:43:04;102087.00;;;2.96;68.39
35918;BME280;22011;59.912;30.300;2023-02-16T06:45:32;102086.84;;;2.99;69.31
35918;BME280;22011;59.912;30.300;2023-02-16T06:47:59;102082.34;;;3.01;68.54
35918;BME280;22011;59.912;30.300;2023-02-16T06:50:27;102084.31;;;2.98;68.15
35918;BME280;22011;59.912;30.300;2023-02-16T06:52:54;102084.31;;;2.98;68.45
35918;BME280;22011;59.912;30.300;2023-02-16T06:55:23;102081.66;;;2.98;69.01
35918;BME280;22011;59.912;30.300;2023-02-16T06:57:50;102081.81;;;2.79;69.62
35918;BME280;22011;59.912;30.300;2023-02-16T07:00:18;102077.91;;;2.70;70.02
35918;BME280;22011;59.912;30.300;2023-02-16T07:02:46;102071.19;;;2.65;70.18
35918;BME280;22011;59.912;30.300;2023-02-16T07:05:13;102078.47;;;2.59;70.66
35918;BME280;22011;59.912;30.300;2023-02-16T07:07:42;102077.53;;;2.60;70.95
35918;BME280;22011;59.912;30.300;2023-02-16T07:10:10;102069.66;;;2.60;71.30
35918;BME280;22011;59.912;30.300;2023-02-16T07:12:39;102069.59;;;2.78;71.71
35918;BME280;22011;59.912;30.300;2023-02-16T07:15:07;102065.69;;;2.85;71.28
35918;BME280;22011;59.912;30.300;2023-02-16T07:17:35;102065.59;;;2.86;70.70
35918;BME280;22011;59.912;30.300;2023-02-16T07:20:03;102064.00;;;2.84;70.52
35918;BME280;22011;59.912;30.300;2023-02-16T07:22:31;102064.31;;;2.78;70.56
35918;BME280;22011;59.912;30.300;2023-02-16T07:24:59;102063.03;;;2.69;70.98
35918;BME280;22011;59.912;30.300;2023-02-16T07:27:26;102059.63;;;2.67;71.49
35918;BME280;22011;59.912;30.300;2023-02-16T07:29:55;102060.16;;;2.74;71.01
35918;BME280;22011;59.912;30.300;2023-02-16T07:32:23;102059.31;;;2.73;70.80
35918;BME280;22011;59.912;30.300;2023-02-16T07:34:50;102052.50;;;2.69;70.64
35918;BME280;22011;59.912;30.300;2023-02-16T07:37:18;102052.84;;;2.63;70.88
35918;BME280;22011;59.912;30.300;2023-02-16T07:39:45;102056.25;;;2.65;71.26
35918;BME280;22011;59.912;30.300;2023-02-16T07:42:13;102053.59;;;2.65;70.90
35918;BME280;22011;59.912;30.300;2023-02-16T07:44:46;102048.69;;;2.59;71.15
35918;BME280;22011;59.912;30.300;2023-02-16T07:47:14;102046.66;;;2.64;71.08
35918;BME280;22011;59.912;30.300;2023-02-16T07:49:43;102036.13;;;2.64;70.79
35918;BME280;22011;59.912;30.300;2023-02-16T07:52:10;102042.22;;;2.65;70.36
35918;BME280;22011;59.912;30.300;2023-02-16T07:54:38;102051.56;;;2.70;70.59
35918;BME280;22011;59.912;30.300;2023-02-16T07:57:05;102054.03;;;2.73;70.32
35918;BME280;22011;59.912;30.300;2023-02-16T07:59:33;102057.69;;;2.71;69.93
35918;BME280;22011;59.912;30.300;2023-02-16T08:02:00;102047.94;;;2.73;69.95
35918;BME280;22011;59.912;30.300;2023-02-16T08:04:29;102058.03;;;2.80;69.99
35918;BME280;22011;59.912;30.300;2023-02-16T08:06:57;102050.22;;;2.79;69.46
35918;BME280;22011;59.912;30.300;2023-02-16T08:09:24;102052.94;;;2.77;69.27
35918;BME280;22011;59.912;30.300;2023-02-16T08:11:52;102048.38;;;2.81;69.49
35918;BME280;22011;59.912;30.300;2023-02-16T08:14:19;102048.63;;;2.76;69.00
35918;BME280;22011;59.912;30.300;2023-02-16T08:16:47;102044.28;;;2.75;68.80
35918;BME280;22011;59.912;30.300;2023-02-16T08:19:14;102048.09;;;2.70;69.01
35918;BME280;22011;59.912;30.300;2023-02-16T08:21:43;102045.47;;;2.70;68.92
35918;BME280;22011;59.912;30.300;2023-02-16T08:24:14;102038.59;;;2.67;68.46
35918;BME280;22011;59.912;30.300;2023-02-16T08:26:42;102037.66;;;2.68;68.12
35918;BME280;22011;59.912;30.300;2023-02-16T08:29:10;102037.75;;;2.67;68.43
35918;BME280;22011;59.912;30.300;2023-02-16T08:31:40;102037.81;;;2.65;68.65
35918;BME280;22011;59.912;30.300;2023-02-16T08:34:08;102028.16;;;2.66;68.03
35918;BME280;22011;59.912;30.300;2023-02-16T08:36:37;102033.16;;;2.70;68.04
35918;BME280;22011;59.912;30.300;2023-02-16T08:39:09;102026.78;;;2.74;68.11
35918;BME280;22011;59.912;30.300;2023-02-16T08:41:37;102027.31;;;2.81;68.05
35918;BME280;22011;59.912;30.300;2023-02-16T08:44:06;102023.56;;;2.85;67.51
35918;BME280;22011;59.912;30.300;2023-02-16T08:46:36;102020.69;;;2.89;67.84
35918;BME280;22011;59.912;30.300;2023-02-16T08:49:05;102011.50;;;2.97;67.03
35918;BME280;22011;59.912;30.300;2023-02-16T08:51:35;102011.34;;;3.00;66.05
35918;BME280;22011;59.912;30.300;2023-02-16T08:54:04;102007.00;;;2.99;65.96
35918;BME280;22011;59.912;30.300;2023-02-16T08:56:34;102003.53;;;2.98;66.10
35918;BME280;22011;59.912;30.300;2023-02-16T08:59:02;102003.63;;;2.97;65.83
35918;BME280;22011;59.912;30.300;2023-02-16T09:01:30;102004.47;;;2.81;66.26
35918;BME280;22011;59.912;30.300;2023-02-16T09:03:58;102004.22;;;2.86;66.28
35918;BME280;22011;59.912;30.300;2023-02-16T09:06:25;102005.22;;;2.83;65.84
35918;BME280;22011;59.912;30.300;2023-02-16T09:08:55;102014.91;;;2.99;65.57
35918;BME280;22011;59.912;30.300;2023-02-16T09:11:23;102003.44;;;3.00;65.07
35918;BME280;22011;59.912;30.300;2023-02-16T09:13:52;102006.06;;;3.00;65.78
35918;BME280;22011;59.912;30.300;2023-02-16T09:16:21;102001.50;;;3.03;65.35
35918;BME280;22011;59.912;30.300;2023-02-16T09:18:50;101998.34;;;2.97;65.43
35918;BME280;22011;59.912;30.300;2023-02-16T09:21:20;102000.56;;;3.04;66.13
35918;BME280;22011;59.912;30.300;2023-02-16T09:23:52;102000.28;;;3.09;65.90
35918;BME280;22011;59.912;30.300;2023-02-16T09:26:22;101991.72;;;3.05;65.43
35918;BME280;22011;59.912;30.300;2023-02-16T09:28:52;102000.47;;;3.06;65.77
35918;BME280;22011;59.912;30.300;2023-02-16T09:31:22;101995.19;;;3.06;65.54
35918;BME280;22011;59.912;30.300;2023-02-16T09:33:52;101983.91;;;3.04;65.35
35918;BME280;22011;59.912;30.300;2023-02-16T09:36:21;101980.34;;;3.05;64.55
35918;BME280;22011;59.912;30.300;2023-02-16T09:38:49;101982.97;;;3.05;63.50
35918;BME280;22011;59.912;30.300;2023-02-16T09:41:24;101985.44;;;3.08;63.64
35918;BME280;22011;59.912;30.300;2023-02-16T09:43:57;101984.84;;;3.03;63.43
35918;BME280;22011;59.912;30.300;2023-02-16T09:46:28;101983.91;;;3.04;64.00
35918;BME280;22011;59.912;30.300;2023-02-16T09:48:56;101982.72;;;3.09;63.11
35918;BME280;22011;59.912;30.300;2023-02-16T09:51:34;101981.03;;;3.22;63.94
35918;BME280;22011;59.912;30.300;2023-02-16T09:54:13;101979.75;;;3.29;64.21
35918;BME280;22011;59.912;30.300;2023-02-16T09:56:48;101974.41;;;3.31;61.97
35918;BME280;22011;59.912;30.300;2023-02-16T09:59:34;101972.84;;;3.43;62.02
35918;BME280;22011;59.912;30.300;2023-02-16T10:02:24;101973.31;;;3.49;61.64
35918;BME280;22011;59.912;30.300;2023-02-16T10:05:09;101965.78;;;3.43;61.19
35918;BME280;22011;59.912;30.300;2023-02-16T10:07:44;101962.91;;;3.32;60.76
35918;BME280;22011;59.912;30.300;2023-02-16T10:10:17;101950.28;;;3.23;60.30
35918;BME280;22011;59.912;30.300;2023-02-16T10:12:51;101957.25;;;3.24;60.60
35918;BME280;22011;59.912;30.300;2023-02-16T10:15:24;101951.81;;;3.27;60.73
35918;BME280;22011;59.912;30.300;2023-02-16T10:17:56;101957.25;;;3.24;60.06
35918;BME280;22011;59.912;30.300;2023-02-16T10:20:26;101951.03;;;3.25;60.54
35918;BME280;22011;59.912;30.300;2023-02-16T10:22:59;101938.53;;;3.28;59.76
35918;BME280;22011;59.912;30.300;2023-02-16T10:25:35;101950.09;;;3.26;61.06
35918;BME280;22011;59.912;30.300;2023-02-16T10:28:14;101951.63;;;3.30;60.48
35918;BME280;22011;59.912;30.300;2023-02-16T10:30:48;101952.97;;;3.37;60.55
35918;BME280;22011;59.912;30.300;2023-02-16T10:33:26;101943.94;;;3.41;60.23
35918;BME280;22011;59.912;30.300;2023-02-16T10:35:59;101937.34;;;3.34;60.46
35918;BME280;22011;59.912;30.300;2023-02-16T10:38:32;101950.41;;;3.36;60.47
35918;BME280;22011;59.912;30.300;2023-02-16T10:41:07;101951.94;;;3.40;60.67
35918;BME280;22011;59.912;30.300;2023-02-16T10:43:42;101944.69;;;3.43;60.69
35918;BME280;22011;59.912;30.300;2023-02-16T10:46:16;101938.50;;;3.44;61.60
35918;BME280;22011;59.912;30.300;2023-02-16T10:48:51;101933.88;;;3.48;61.12
35918;BME280;22011;59.912;30.300;2023-02-16T10:51:20;101932.28;;;3.45;60.42
35918;BME280;22011;59.912;30.300;2023-02-16T10:53:55;101930.03;;;3.53;60.83
35918;BME280;22011;59.912;30.300;2023-02-16T10:56:38;101921.41;;;3.66;60.39
35918;BME280;22011;59.912;30.300;2023-02-16T10:59:14;101921.97;;;3.56;60.00
35918;BME280;22011;59.912;30.300;2023-02-16T11:01:45;101919.97;;;3.46;59.99
35918;BME280;22011;59.912;30.300;2023-02-16T11:04:30;101921.78;;;3.59;60.33
35918;BME280;22011;59.912;30.300;2023-02-16T11:07:01;101918.09;;;3.48;60.70
35918;BME280;22011;59.912;30.300;2023-02-16T11:09:30;101930.31;;;3.49;59.91
35918;BME280;22011;59.912;30.300;2023-02-16T11:11:59;101906.69;;;3.47;59.15
35918;BME280;22011;59.912;30.300;2023-02-16T11:14:28;101915.53;;;3.46;59.57
35918;BME280;22011;59.912;30.300;2023-02-16T11:17:10;101912.34;;;3.55;59.78
35918;BME280;22011;59.912;30.300;2023-02-16T11:19:40;101914.97;;;3.41;59.26
35918;BME280;22011;59.912;30.300;2023-02-16T11:22:25;101915.25;;;3.51;60.03
35918;BME280;22011;59.912;30.300;2023-02-16T11:24:53;101913.19;;;3.42;59.29
35918;BME280;22011;59.912;30.300;2023-02-16T11:27:22;101906.88;;;3.44;59.71
35918;BME280;22011;59.912;30.300;2023-02-16T11:30:13;101913.88;;;3.59;60.31
35918;BME280;22011;59.912;30.300;2023-02-16T11:32:49;101910.28;;;3.46;59.76
35918;BME280;22011;59.912;30.300;2023-02-16T11:35:17;101899.91;;;3.43;59.71
35918;BME280;22011;59.912;30.300;2023-02-16T11:37:45;101902.53;;;3.43;60.88
35918;BME280;22011;59.912;30.300;2023-02-16T11:40:19;101896.63;;;3.54;61.52
35918;BME280;22011;59.912;30.300;2023-02-16T11:42:51;101896.16;;;3.47;60.09
35918;BME280;22011;59.912;30.300;2023-02-16T11:45:26;101900.13;;;3.54;59.49
35918;BME280;22011;59.912;30.300;2023-02-16T11:47:57;101897.84;;;3.48;59.22
35918;BME280;22011;59.912;30.300;2023-02-16T11:50:29;101892.19;;;3.40;59.31
35918;BME280;22011;59.912;30.300;2023-02-16T11:53:13;101902.75;;;3.54;60.08
35918;BME280;22011;59.912;30.300;2023-02-16T11:55:43;101891.34;;;3.40;59.29
35918;BME280;22011;59.912;30.300;2023-02-16T11:58:12;101888.09;;;3.65;59.87
35918;BME280;22011;59.912;30.300;2023-02-16T12:00:41;101888.44;;;3.44;59.16
35918;BME280;22011;59.912;30.300;2023-02-16T12:03:51;101889.59;;;3.54;59.54
35918;BME280;22011;59.912;30.300;2023-02-16T12:06:32;101876.97;;;3.45;59.31
35918;BME280;22011;59.912;30.300;2023-02-16T12:09:08;101875.63;;;3.38;58.78
35918;BME280;22011;59.912;30.300;2023-02-16T12:11:49;101872.91;;;3.40;58.84
35918;BME280;22011;59.912;30.300;2023-02-16T12:14:25;101872.06;;;3.39;58.95
35918;BME280;22011;59.912;30.300;2023-02-16T12:17:06;101872.81;;;3.41;58.63
35918;BME280;22011;59.912;30.300;2023-02-16T12:19:43;101869.69;;;3.35;58.18
35918;BME280;22011;59.912;30.300;2023-02-16T12:22:23;101873.47;;;3.45;58.51
35918;BME280;22011;59.912;30.300;2023-02-16T12:25:03;101876.19;;;3.43;58.06
35918;BME280;22011;59.912;30.300;2023-02-16T12:27:37;101866.03;;;3.37;58.15
35918;BME280;22011;59.912;30.300;2023-02-16T12:30:16;101866.31;;;3.33;58.06
35918;BME280;22011;59.912;30.300;2023-02-16T12:33:06;101865.47;;;3.32;58.44
35918;BME280;22011;59.912;30.300;2023-02-16T12:35:59;101865.28;;;3.35;58.34
35918;BME280;22011;59.912;30.300;2023-02-16T12:38:36;101859.63;;;3.27;58.09
35918;BME280;22011;59.912;30.300;2023-02-16T12:41:16;101858.00;;;3.24;57.69
35918;BME280;22011;59.912;30.300;2023-02-16T12:43:48;101863.19;;;3.12;57.45
35918;BME280;22011;59.912;30.300;2023-02-16T12:46:21;101858.88;;;3.11;57.93
35918;BME280;22011;59.912;30.300;2023-02-16T12:48:54;101856.78;;;3.16;57.87
35918;BME280;22011;59.912;30.300;2023-02-16T12:51:29;101853.19;;;3.17;57.83
35918;BME280;22011;59.912;30.300;2023-02-16T12:54:00;101850.84;;;3.12;59.19
35918;BME280;22011;59.912;30.300;2023-02-16T12:56:32;101851.06;;;3.09;57.99
35918;BME280;22011;59.912;30.300;2023-02-16T12:59:12;101847.56;;;3.09;57.94
35918;BME280;22011;59.912;30.300;2023-02-16T13:01:42;101846.81;;;3.07;58.07
35918;BME280;22011;59.912;30.300;2023-02-16T13:04:17;101843.59;;;3.16;58.10
35918;BME280;22011;59.912;30.300;2023-02-16T13:06:52;101839.28;;;3.15;57.89
35918;BME280;22011;59.912;30.300;2023-02-16T13:09:34;101844.34;;;3.18;58.70
35918;BME280;22011;59.912;30.300;2023-02-16T13:12:07;101847.56;;;3.09;58.75
35918;BME280;22011;59.912;30.300;2023-02-16T13:14:41;101846.06;;;3.05;58.29
35918;BME280;22011;59.912;30.300;2023-02-16T13:17:13;101846.16;;;3.03;58.09
35918;BME280;22011;59.912;30.300;2023-02-16T13:19:43;101841.81;;;3.02;57.67